Lihue, HI

3:40 AM HST on October 24, 2014 (GMT -1000)
Wheeler Army Air Field | Change Station
CLOSE
Current Station
Airport
Location: Wheeler AAF,
Elevation: 837 ft
Nearby Weather Stations

Elev 837 ft 21.48 °N, 158.04 °W | Updated 34 minutes ago

Mostly Cloudy
Mostly Cloudy
70 °F
Feels Like 70 °F
N
7
Wind Variable Wind from WNW

Today
High -- | Low -- °F
--% Chance of Precip.
Yesterday
High -- | Low -- °F
Precip. -- in
6:37 AM 6:05 PM
New Moon, 0% visible
Pressure 30.01 in
Visibility 10.0 miles
Clouds Few 2000 ft
Mostly Cloudy 3000 ft
Dew Point 68 °F
Humidity 94%
Rainfall 0.02 in
Snow Depth Not available.
UV 0 out of 12
Pollen Not available.
Air Quality Not available.
Flu Activity Sporadic
SPECI PHHI 241306Z 29006KT 10SM FEW020 BKN030 21/20 A3001 RMK AO2A

More Conditions Fewer Conditions

Pressure 30.01 in
Visibility 10.0 miles
Clouds Few 2000 ft
Mostly Cloudy 3000 ft
Dew Point 68 °F
Humidity 94%
Rainfall 0.02 in
Snow Depth Not available.
UV 0 out of 12
Pollen Not available.
Air Quality Not available.
Flu Activity Sporadic
SPECI PHHI 241306Z 29006KT 10SM FEW020 BKN030 21/20 A3001 RMK AO2A

More Conditions Fewer Conditions

10-Day Weather Forecast

Almanac

Astronomy

Oct. 24, 2014 Rise Set
Actual Time 6:37 AM HST 6:05 PM HST
Civil Twilight 6:14 AM HST 6:28 PM HST
Nautical Twilight 5:48 AM HST 6:54 PM HST
Astronomical Twilight 5:22 AM HST 7:20 PM HST
Moon 7:23 AM HST 6:59 PM HST
Length of Visible Light 12h 13m
Length of Day
11h 28m
Tomorrow will be 1m 8s shorter.
New Moon, 0% of the Moon is Illuminated
Today
New Moon
Oct 30
First Quarter
Nov 6
Full
Nov 14
Last Quarter
Nov 22
New

Today's Extremes

State Highs State Lows

Community

WunderPhotos

Upload Photos

1,764,550 photos uploaded!

WunderBlogs® & News

Nearby

Snow Depth

Station Depth Elevation
No new snow has been reported.

Earthquake Activity

City Distance Mag. Time & Date
No recent earthquake activity has been reported nearby.
Minimum magnitude displayed is 2.5.

Coastal Water Temperatures

Place Temperature
No Stations Reporting

Nearby Weather Stations